createdAt,value
2022-11-30T00:04:40.296Z,6.17
2022-11-30T00:10:03.806Z,6.87
2022-11-30T00:15:28.368Z,6.97
2022-11-30T00:20:51.581Z,6.47
2022-11-30T00:26:18.598Z,6.30
2022-11-30T00:31:43.203Z,7.30
2022-11-30T00:37:06.369Z,6.57
2022-11-30T00:42:29.575Z,6.23
2022-11-30T00:47:54.173Z,6.57
2022-11-30T00:53:17.497Z,6.53
2022-11-30T00:58:40.939Z,7.60
2022-11-30T01:04:06.092Z,5.93
2022-11-30T01:09:29.338Z,7.80
2022-11-30T01:14:52.609Z,7.43
2022-11-30T01:20:17.502Z,6.60
2022-11-30T01:25:40.765Z,8.03
2022-11-30T01:31:05.445Z,7.87
2022-11-30T01:36:29.996Z,6.00
2022-11-30T01:41:54.632Z,7.00
2022-11-30T01:47:19.297Z,8.30
2022-11-30T01:52:45.883Z,7.70
2022-11-30T01:58:11.746Z,8.50
2022-11-30T02:03:39.579Z,8.03
2022-11-30T02:09:04.619Z,9.03
2022-11-30T02:14:33.208Z,8.77
2022-11-30T02:20:33.262Z,7.57
2022-11-30T02:26:08.065Z,8.40
2022-11-30T02:31:39.724Z,9.17
2022-11-30T02:37:03.499Z,9.77
2022-11-30T02:42:27.435Z,8.37
2022-11-30T02:47:58.729Z,9.57
2022-11-30T02:53:22.335Z,10.37
2022-11-30T02:58:45.769Z,9.87
2022-11-30T03:04:10.441Z,10.13
2022-11-30T03:09:33.726Z,9.87
2022-11-30T03:14:56.884Z,10.00
2022-11-30T03:20:21.498Z,9.30
2022-11-30T03:25:44.777Z,9.50
2022-11-30T03:31:08.048Z,12.37
2022-11-30T03:36:32.689Z,9.97
2022-11-30T03:41:55.989Z,8.93
2022-11-30T03:47:19.507Z,9.70
2022-11-30T03:52:44.112Z,9.50
2022-11-30T03:58:07.756Z,9.27
2022-11-30T04:03:31.772Z,8.07
2022-11-30T04:08:56.329Z,10.63
2022-11-30T04:14:19.636Z,11.63
2022-11-30T04:19:42.996Z,11.73
2022-11-30T04:25:08.810Z,9.50
2022-11-30T04:30:32.204Z,11.00
2022-11-30T04:35:57.487Z,10.57
2022-11-30T04:41:22.105Z,9.80
2022-11-30T04:46:45.524Z,10.53
2022-11-30T04:52:08.797Z,14.73
2022-11-30T04:57:33.435Z,10.23
2022-11-30T05:02:56.991Z,10.77
2022-11-30T05:08:20.388Z,10.00
2022-11-30T05:13:45.028Z,11.93
2022-11-30T05:19:08.205Z,9.40
2022-11-30T05:24:31.474Z,9.53
2022-11-30T05:29:56.097Z,9.00
2022-11-30T05:35:19.307Z,10.83
2022-11-30T05:40:42.455Z,10.67
2022-11-30T05:46:08.802Z,9.20
2022-11-30T05:51:32.025Z,9.17
2022-11-30T05:56:55.512Z,9.60
2022-11-30T06:02:25.129Z,8.63
2022-11-30T06:07:51.216Z,10.47
2022-11-30T06:13:14.822Z,8.83
2022-11-30T06:18:39.462Z,8.87
2022-11-30T06:24:02.717Z,11.67
2022-11-30T06:29:26.020Z,9.40
2022-11-30T06:34:50.629Z,9.60
2022-11-30T06:40:15.133Z,9.00
2022-11-30T06:45:38.572Z,10.00
2022-11-30T06:51:05.808Z,9.33
2022-11-30T06:56:28.988Z,9.50
2022-11-30T07:01:52.237Z,9.67
2022-11-30T07:07:17.077Z,10.27
2022-11-30T07:12:40.436Z,8.53
2022-11-30T07:18:03.623Z,10.63
2022-11-30T07:23:48.402Z,12.90
2022-11-30T07:29:14.153Z,10.47
2022-11-30T07:34:37.410Z,12.10
2022-11-30T07:40:02.035Z,11.20
2022-11-30T07:45:25.318Z,14.03
2022-11-30T07:50:48.698Z,13.23
2022-11-30T07:56:15.332Z,11.17
2022-11-30T08:01:38.665Z,13.40
2022-11-30T08:07:02.078Z,13.77
2022-11-30T08:12:26.801Z,12.80
2022-11-30T08:17:55.134Z,11.27
2022-11-30T08:23:18.364Z,11.27
2022-11-30T08:28:44.041Z,11.40
2022-11-30T08:34:08.931Z,12.47
2022-11-30T08:39:34.489Z,11.03
2022-11-30T08:44:59.292Z,8.87
2022-11-30T08:50:22.960Z,10.97
2022-11-30T08:55:56.406Z,11.97
2022-11-30T09:01:24.156Z,10.37
2022-11-30T09:06:49.266Z,11.13
2022-11-30T09:12:12.539Z,11.60
2022-11-30T09:18:00.614Z,10.70
2022-11-30T09:23:23.757Z,13.20
2022-11-30T09:28:47.958Z,10.17
2022-11-30T09:34:13.374Z,11.83
2022-11-30T09:39:36.572Z,12.83
2022-11-30T09:45:04.605Z,12.27
2022-11-30T09:50:31.464Z,11.03
2022-11-30T09:55:55.219Z,10.50
2022-11-30T10:01:20.028Z,10.53
2022-11-30T10:06:54.812Z,11.53
2022-11-30T10:12:21.830Z,11.63
2022-11-30T10:17:55.466Z,10.87
2022-11-30T10:23:40.744Z,12.93
2022-11-30T10:29:09.060Z,12.40
2022-11-30T10:34:34.819Z,12.07
2022-11-30T10:40:02.310Z,11.83
2022-11-30T10:45:26.340Z,12.00
2022-11-30T10:50:49.649Z,12.10
2022-11-30T10:56:15.187Z,13.33
2022-11-30T11:01:40.443Z,13.50
2022-11-30T11:07:09.969Z,15.93
2022-11-30T11:12:34.655Z,16.03
2022-11-30T11:18:23.466Z,14.63
2022-11-30T11:23:47.332Z,13.53
2022-11-30T11:29:31.309Z,15.03
2022-11-30T11:34:54.585Z,16.87
2022-11-30T11:40:20.933Z,17.17
2022-11-30T11:45:52.266Z,16.37
2022-11-30T11:51:15.392Z,15.23
2022-11-30T11:56:38.762Z,14.47
2022-11-30T12:02:11.867Z,15.23
2022-11-30T12:07:38.437Z,11.97
2022-11-30T12:13:01.834Z,11.90
2022-11-30T12:18:32.039Z,13.27
2022-11-30T12:24:04.044Z,16.37
2022-11-30T12:29:35.846Z,16.67
2022-11-30T12:35:10.499Z,16.33
2022-11-30T12:40:39.110Z,13.90
2022-11-30T12:46:10.713Z,14.80
2022-11-30T12:51:39.172Z,13.53
2022-11-30T12:57:12.185Z,12.47
2022-11-30T13:02:51.230Z,13.27
2022-11-30T13:08:21.424Z,12.80
2022-11-30T13:13:49.138Z,13.40
2022-11-30T13:19:26.046Z,13.43
2022-11-30T13:24:54.595Z,14.57
2022-11-30T13:30:27.989Z,13.60
2022-11-30T13:35:54.907Z,13.00
2022-11-30T13:41:22.280Z,14.67
2022-11-30T13:46:50.296Z,12.60
2022-11-30T13:52:22.670Z,12.90
2022-11-30T13:58:06.809Z,16.13
2022-11-30T14:03:31.419Z,14.37
2022-11-30T14:08:54.606Z,14.53
2022-11-30T14:14:57.348Z,13.53
2022-11-30T14:20:24.457Z,13.13
2022-11-30T14:25:49.075Z,12.83
2022-11-30T14:31:17.788Z,15.50
2022-11-30T14:36:46.002Z,13.57
2022-11-30T14:42:20.340Z,15.93
2022-11-30T14:47:48.016Z,11.73
2022-11-30T14:53:23.588Z,12.67
2022-11-30T14:58:51.732Z,11.70
2022-11-30T15:04:17.215Z,13.27
2022-11-30T15:09:44.174Z,10.73
2022-11-30T15:15:19.836Z,13.50
2022-11-30T15:20:46.107Z,12.10
2022-11-30T15:26:15.489Z,12.83
2022-11-30T15:31:44.716Z,11.13
2022-11-30T15:37:08.149Z,11.07
2022-11-30T15:42:39.873Z,10.77
2022-11-30T15:48:07.359Z,12.57
2022-11-30T15:53:35.999Z,11.07
2022-11-30T15:59:06.178Z,10.57
2022-11-30T16:04:30.042Z,16.40
2022-11-30T16:09:53.365Z,13.67
2022-11-30T16:15:20.422Z,12.33
2022-11-30T16:20:43.718Z,11.40
2022-11-30T16:26:18.342Z,11.63
2022-11-30T16:31:55.042Z,11.67
2022-11-30T16:37:18.305Z,11.47
2022-11-30T16:42:41.919Z,9.40
2022-11-30T16:48:07.657Z,10.43
2022-11-30T16:53:30.902Z,9.57
2022-11-30T16:58:54.708Z,10.33
2022-11-30T17:04:20.850Z,12.07
2022-11-30T17:09:44.118Z,10.70
2022-11-30T17:15:08.522Z,12.63
2022-11-30T17:20:33.193Z,12.57
2022-11-30T17:25:56.530Z,11.77
2022-11-30T17:31:20.086Z,13.30
2022-11-30T17:36:45.113Z,10.93
2022-11-30T17:42:08.326Z,12.93
2022-11-30T17:47:31.521Z,13.30
2022-11-30T17:52:56.198Z,13.07
2022-11-30T17:58:19.404Z,12.20
2022-11-30T18:03:42.557Z,10.63
2022-11-30T18:09:07.346Z,10.47
2022-11-30T18:14:30.589Z,11.17
2022-11-30T18:19:53.801Z,9.33
2022-11-30T18:25:18.791Z,12.83
2022-11-30T18:30:42.007Z,13.57
2022-11-30T18:36:07.728Z,11.73
2022-11-30T18:41:32.648Z,13.70
2022-11-30T18:46:55.842Z,14.27
2022-11-30T18:52:18.952Z,13.63
2022-11-30T18:57:43.632Z,13.70
2022-11-30T19:03:07.070Z,14.40
2022-11-30T19:08:30.357Z,13.87
2022-11-30T19:13:56.339Z,13.67
2022-11-30T19:19:19.642Z,12.03
2022-11-30T19:24:42.971Z,11.93
2022-11-30T19:30:09.356Z,13.63
2022-11-30T19:35:32.861Z,15.83
2022-11-30T19:40:56.232Z,16.73
2022-11-30T19:46:20.965Z,13.10
2022-11-30T19:51:44.215Z,13.60
2022-11-30T19:57:07.549Z,13.10
2022-11-30T20:02:32.252Z,14.43
2022-11-30T20:07:55.535Z,15.07
2022-11-30T20:13:18.872Z,12.77
2022-11-30T20:18:46.327Z,16.43
2022-11-30T20:24:11.976Z,17.07
2022-11-30T20:29:35.392Z,13.47
2022-11-30T20:34:59.996Z,17.33
2022-11-30T20:40:23.779Z,13.87
2022-11-30T20:45:47.155Z,15.80
2022-11-30T20:57:19.276Z,16.27
2022-11-30T21:02:42.605Z,15.37
2022-11-30T21:08:08.419Z,13.23
2022-11-30T21:13:32.670Z,16.13
2022-11-30T21:18:56.475Z,14.87
2022-11-30T21:24:21.180Z,15.80
2022-11-30T21:29:44.408Z,14.33
2022-11-30T21:35:08.983Z,16.87
2022-11-30T21:40:33.582Z,15.57
2022-11-30T21:46:00.846Z,15.70
2022-11-30T21:51:25.700Z,15.63
2022-11-30T21:56:52.368Z,18.17
2022-11-30T22:02:37.386Z,16.87
2022-11-30T22:08:00.725Z,15.77
2022-11-30T22:13:25.269Z,15.80
2022-11-30T22:18:48.662Z,17.20
2022-11-30T22:24:13.784Z,13.77
2022-11-30T22:29:38.438Z,13.03
2022-11-30T22:35:01.930Z,12.60
2022-11-30T22:40:25.132Z,16.87
2022-11-30T22:45:49.767Z,13.07
2022-11-30T22:51:15.010Z,13.13
2022-11-30T22:56:41.390Z,13.47
2022-11-30T23:02:06.191Z,13.70
2022-11-30T23:07:32.203Z,12.83
2022-11-30T23:13:00.109Z,14.60
2022-11-30T23:18:25.039Z,15.50
2022-11-30T23:23:48.654Z,16.13
2022-11-30T23:29:13.557Z,15.27
2022-11-30T23:34:38.559Z,16.37
2022-11-30T23:40:01.825Z,16.93
2022-11-30T23:45:25.038Z,16.17
2022-11-30T23:50:50.793Z,16.70
2022-11-30T23:56:16.733Z,16.60
